Orlean, VA (20128)

9:05 PM EDT on July 28, 2015 (GMT -0400)
Orlean | | Change Station
CLOSE
Current Station
Personal Weather Station
Location: Marshall, VA
Elevation: 564 ft
Nearby Weather Stations

Elev 564 ft 38.77 °N, 77.93 °W | Updated 10 minutes ago

Overcast
Overcast
74.1 °F
Feels Like 73 °F
N
0.0
Wind Variable Wind from ESE

Today
High -- | Low -- °F
--% Chance of Precip.
Yesterday
High -- | Low -- °F
Precip. -- in
6:09 AM 8:26 PM
Waxing Gibbous, 92% visible
Pressure 30.01 in
Visibility 5.0 miles
Clouds Scattered Clouds 9500 ft
Scattered Clouds 11000 ft
Heat Index 73 °F
Dew Point 70 °F
Humidity 87%
Rainfall 0.00 in
Snow Depth Not available.
UV 0 out of 12
Pollen 4.60 out of 12
Air Quality Not available.
Flu Activity Not available.
METAR KCJR 290050Z AUTO 00000KT 5SM -RA SCT095 SCT110 23/22 A3001 RMK AO2 P0003 T02250222

More Conditions Fewer Conditions

Pressure 30.01 in
Visibility 5.0 miles
Clouds Scattered Clouds 9500 ft
Scattered Clouds 11000 ft
Heat Index 73 °F
Dew Point 70 °F
Humidity 87%
Rainfall 0.00 in
Snow Depth Not available.
UV 0 out of 12
Pollen 4.60 out of 12
Air Quality Not available.
Flu Activity Not available.
METAR KCJR 290050Z AUTO 00000KT 5SM -RA SCT095 SCT110 23/22 A3001 RMK AO2 P0003 T02250222

More Conditions Fewer Conditions

10-Day Weather Forecast

×

Almanac

Astronomy

Jul. 28, 2015 Rise Set
Actual Time
Civil Twilight
Nautical Twilight
Astronomical Twilight
Moon
Length of Visible Light
Length of Day
Tomorrow will be .
, % of the Moon is Illuminated

Today's Extremes

State Highs State Lows

Community

WunderPhotos

Upload Photos

1,841,990 photos uploaded!

WunderBlogs® & News

Nearby

Air Quality

  Air Quality AQ Index Pollutant
Not available.

Snow Depth

Station Depth Elevation

Earthquake Activity

City Distance Mag. Time & Date
Minimum magnitude displayed is 2.5.

Coastal Water Temperatures

Place Temperature

Stations

Nearby Weather Stations

Station Location Temp. Windchill Dew Point Humidity Wind Precip. Elev Updated Type